Ocean Falls, Canada
Current Conditions -  °F | °C
As of 5:00 AM on Saturday 22 Nov 2014 (Local Time) from CYZT Reporting Station
Rain Showers Rain Showers  
Wind Chill: 36°   Ceiling: 6800
Heat Index: 41°   Visibility: 10mi
Dew Point: 41°   Wind: 8mph
Humidity: 100%   Direction: 210°SSW
Pressure: 29.57"   Gusts: NA
Location:  52.35°N, 127.7°W
Report Text: CYZT 221300Z 21007KT 10SM -SHRA FEW020 SCT030 OVC068 05/05 A2957 RMK SC2SC2AC4 SLP013
Loading
Personal Weather Stations






























Interactive Weather Map New forecast layout! Learn more

10-Day Weather Forecast

Advertisements
Track Severe Weather on mobile